createdAt,value
2022-08-28T00:02:06.517Z,49.29
2022-08-28T00:04:34.681Z,49.69
2022-08-28T00:07:02.297Z,49.73
2022-08-28T00:09:29.574Z,50.18
2022-08-28T00:11:56.979Z,50.37
2022-08-28T00:14:24.602Z,50.76
2022-08-28T00:16:54.433Z,51.14
2022-08-28T00:19:24.043Z,51.20
2022-08-28T00:21:52.221Z,50.84
2022-08-28T00:24:19.244Z,50.82
2022-08-28T00:27:05.434Z,50.79
2022-08-28T00:29:32.769Z,50.92
2022-08-28T00:32:00.359Z,51.28
2022-08-28T00:34:33.068Z,51.59
2022-08-28T00:37:01.783Z,51.89
2022-08-28T00:39:29.082Z,52.11
2022-08-28T00:41:58.272Z,52.14
2022-08-28T00:44:28.793Z,52.38
2022-08-28T00:46:57.494Z,52.55
2022-08-28T00:49:28.215Z,52.97
2022-08-28T00:52:08.213Z,53.05
2022-08-28T00:54:58.937Z,53.35
2022-08-28T00:57:36.330Z,53.90
2022-08-28T01:00:08.021Z,54.23
2022-08-28T01:02:35.416Z,54.65
2022-08-28T01:05:02.421Z,54.71
2022-08-28T01:07:29.706Z,54.86
2022-08-28T01:09:57.254Z,55.30
2022-08-28T01:12:28.514Z,55.64
2022-08-28T01:15:01.264Z,55.90
2022-08-28T01:17:33.123Z,56.42
2022-08-28T01:20:06.391Z,56.80
2022-08-28T01:22:38.756Z,57.12
2022-08-28T01:25:13.268Z,57.54
2022-08-28T01:27:44.265Z,57.80
2022-08-28T01:30:14.299Z,58.32
2022-08-28T01:32:45.632Z,58.53
2022-08-28T01:35:23.222Z,58.84
2022-08-28T01:37:50.668Z,59.43
2022-08-28T01:40:25.662Z,59.51
2022-08-28T01:42:52.936Z,59.76
2022-08-28T01:45:24.313Z,60.07
2022-08-28T01:47:51.313Z,60.51
2022-08-28T01:50:20.723Z,60.50
2022-08-28T01:52:47.573Z,60.53
2022-08-28T01:55:21.616Z,60.79
2022-08-28T01:57:53.860Z,60.77
2022-08-28T02:00:27.694Z,60.66
2022-08-28T02:02:56.896Z,60.91
2022-08-28T02:05:25.790Z,60.79
2022-08-28T02:07:53.036Z,60.84
2022-08-28T02:10:24.696Z,60.73
2022-08-28T02:12:52.124Z,60.79
2022-08-28T02:15:23.650Z,60.75
2022-08-28T02:17:51.883Z,60.76
2022-08-28T02:20:19.891Z,60.74
2022-08-28T02:22:47.375Z,61.02
2022-08-28T02:25:15.378Z,61.10
2022-08-28T02:27:43.217Z,61.27
2022-08-28T02:30:12.572Z,61.60
2022-08-28T02:32:39.918Z,61.89
2022-08-28T02:35:12.066Z,61.97
2022-08-28T02:37:40.172Z,62.07
2022-08-28T02:40:08.233Z,62.25
2022-08-28T02:42:35.407Z,62.44
2022-08-28T02:45:02.729Z,62.50
2022-08-28T02:47:30.039Z,62.68
2022-08-28T02:49:57.091Z,62.85
2022-08-28T02:52:24.655Z,62.92
2022-08-28T02:54:51.923Z,62.91
2022-08-28T02:57:19.984Z,63.05
2022-08-28T02:59:47.860Z,62.81
2022-08-28T03:02:15.058Z,62.77
2022-08-28T03:04:43.693Z,62.70
2022-08-28T03:07:15.208Z,62.79
2022-08-28T03:09:44.251Z,62.24
2022-08-28T03:12:13.478Z,62.15
2022-08-28T03:14:40.403Z,62.13
2022-08-28T03:17:07.831Z,62.15
2022-08-28T03:19:35.370Z,62.48
2022-08-28T03:22:02.162Z,62.23
2022-08-28T03:24:29.212Z,62.14
2022-08-28T03:26:56.462Z,61.98
2022-08-28T03:29:23.451Z,62.04
2022-08-28T03:31:51.077Z,61.92
2022-08-28T03:34:17.925Z,61.94
2022-08-28T03:36:44.845Z,61.92
2022-08-28T03:39:12.199Z,61.72
2022-08-28T03:41:40.525Z,61.63
2022-08-28T03:44:07.863Z,61.64
2022-08-28T03:46:35.759Z,61.24
2022-08-28T03:49:04.415Z,61.01
2022-08-28T03:51:34.228Z,60.76
2022-08-28T03:54:02.663Z,60.49
2022-08-28T03:56:30.943Z,60.32
2022-08-28T03:59:01.150Z,60.21
2022-08-28T04:01:28.815Z,60.15
2022-08-28T04:03:56.303Z,60.28
2022-08-28T04:06:23.913Z,60.28
2022-08-28T04:08:51.147Z,60.45
2022-08-28T04:11:18.910Z,60.52
2022-08-28T04:13:46.192Z,60.64
2022-08-28T04:16:18.102Z,60.70
2022-08-28T04:18:48.057Z,60.91
2022-08-28T04:21:23.716Z,61.12
2022-08-28T04:23:51.387Z,61.45
2022-08-28T04:26:22.098Z,61.33
2022-08-28T04:28:49.901Z,61.86
2022-08-28T04:31:20.057Z,62.34
2022-08-28T04:34:05.032Z,62.60
2022-08-28T04:36:33.830Z,62.65
2022-08-28T04:39:01.627Z,62.51
2022-08-28T04:41:28.893Z,62.32
2022-08-28T04:43:57.498Z,61.88
2022-08-28T04:46:25.343Z,61.41
2022-08-28T04:48:52.241Z,61.38
2022-08-28T04:51:20.616Z,61.27
2022-08-28T04:53:47.509Z,60.93
2022-08-28T04:56:15.685Z,61.13
2022-08-28T04:58:43.824Z,60.95
2022-08-28T05:01:18.962Z,60.76
2022-08-28T05:03:50.517Z,60.25
2022-08-28T05:06:21.821Z,59.78
2022-08-28T05:08:49.463Z,59.66
2022-08-28T05:11:33.339Z,59.81
2022-08-28T05:14:05.691Z,59.83
2022-08-28T05:16:39.887Z,59.92
2022-08-28T05:19:07.143Z,59.62
2022-08-28T05:21:34.376Z,59.23
2022-08-28T05:24:01.512Z,58.92
2022-08-28T05:26:29.962Z,58.94
2022-08-28T05:28:57.967Z,58.84
2022-08-28T05:31:25.790Z,58.58
2022-08-28T05:33:53.759Z,58.59
2022-08-28T05:36:23.340Z,58.52
2022-08-28T05:38:57.270Z,58.65
2022-08-28T05:41:30.201Z,58.44
2022-08-28T05:44:02.757Z,57.39
2022-08-28T05:46:31.095Z,57.64
2022-08-28T05:49:05.625Z,57.85
2022-08-28T05:51:36.359Z,57.85
2022-08-28T05:54:03.993Z,57.55
2022-08-28T05:56:35.133Z,57.57
2022-08-28T05:59:04.464Z,57.81
2022-08-28T06:01:34.066Z,57.75
2022-08-28T06:04:03.677Z,57.89
2022-08-28T06:06:38.036Z,58.18
2022-08-28T06:09:12.014Z,57.67
2022-08-28T06:11:44.630Z,57.92
2022-08-28T06:14:17.456Z,57.99
2022-08-28T06:16:50.840Z,58.02
2022-08-28T06:19:18.442Z,58.31
2022-08-28T06:21:48.097Z,58.38
2022-08-28T06:24:15.521Z,58.00
2022-08-28T06:26:42.395Z,57.96
2022-08-28T06:29:11.742Z,58.17
2022-08-28T06:31:40.231Z,58.18
2022-08-28T06:34:09.026Z,57.70
2022-08-28T06:36:41.046Z,57.82
2022-08-28T06:39:10.191Z,57.92
2022-08-28T06:41:43.051Z,58.10
2022-08-28T06:44:13.903Z,58.15
2022-08-28T06:46:42.059Z,58.26
2022-08-28T06:49:10.009Z,57.90
2022-08-28T06:51:37.279Z,57.52
2022-08-28T06:54:04.951Z,57.35
2022-08-28T06:56:33.389Z,57.33
2022-08-28T06:59:00.734Z,57.28
2022-08-28T07:01:34.864Z,57.21
2022-08-28T07:04:06.637Z,57.14
2022-08-28T07:06:34.618Z,56.76
2022-08-28T07:09:02.822Z,56.66
2022-08-28T07:11:32.203Z,56.63
2022-08-28T07:13:59.784Z,56.19
2022-08-28T07:16:30.014Z,56.35
2022-08-28T07:18:57.598Z,56.15
2022-08-28T07:21:24.485Z,56.35
2022-08-28T07:23:51.702Z,56.15
2022-08-28T07:26:23.391Z,55.99
2022-08-28T07:28:52.716Z,56.08
2022-08-28T07:31:37.880Z,55.82
2022-08-28T07:34:05.218Z,55.72
2022-08-28T07:36:32.417Z,55.67
2022-08-28T07:39:00.204Z,55.57
2022-08-28T07:41:32.861Z,55.45
2022-08-28T07:44:19.116Z,55.15
2022-08-28T07:46:46.713Z,55.26
2022-08-28T07:49:17.255Z,55.15
2022-08-28T07:51:46.891Z,55.22
2022-08-28T07:54:17.796Z,55.67
2022-08-28T07:56:45.919Z,55.21
2022-08-28T07:59:16.699Z,55.05
2022-08-28T08:01:47.000Z,55.13
2022-08-28T08:04:16.315Z,54.54
2022-08-28T08:06:44.900Z,54.08
2022-08-28T08:09:16.222Z,54.25
2022-08-28T08:11:43.724Z,54.45
2022-08-28T08:14:12.283Z,54.48
2022-08-28T08:16:43.624Z,54.59
2022-08-28T08:19:15.319Z,53.76
2022-08-28T08:21:43.360Z,53.74
2022-08-28T08:24:12.236Z,53.67
2022-08-28T08:26:59.431Z,52.58
2022-08-28T08:29:35.887Z,51.79
2022-08-28T08:32:08.170Z,51.37
2022-08-28T08:34:40.735Z,51.09
2022-08-28T08:37:08.706Z,49.26
2022-08-28T08:39:37.220Z,49.47
2022-08-28T08:42:10.437Z,49.11
2022-08-28T08:44:43.701Z,49.23
2022-08-28T08:47:29.402Z,49.04
2022-08-28T08:50:00.398Z,48.08
2022-08-28T08:52:27.680Z,48.29
2022-08-28T08:55:23.613Z,48.38
2022-08-28T08:58:07.734Z,48.04
2022-08-28T09:00:57.503Z,47.38
2022-08-28T09:03:47.227Z,46.89
2022-08-28T09:06:26.183Z,45.91
2022-08-28T09:08:58.914Z,44.99
2022-08-28T09:11:34.509Z,44.90
2022-08-28T09:14:19.563Z,44.77
2022-08-28T09:16:48.048Z,44.52
2022-08-28T09:19:19.692Z,44.18
2022-08-28T09:21:48.165Z,44.39
2022-08-28T09:24:28.515Z,44.75
2022-08-28T09:27:01.130Z,43.86
2022-08-28T09:29:43.322Z,44.13
2022-08-28T09:32:16.563Z,44.19
2022-08-28T09:35:09.577Z,45.11
2022-08-28T09:37:37.494Z,45.29
2022-08-28T09:40:13.600Z,45.21
2022-08-28T09:42:59.626Z,45.07
2022-08-28T09:45:29.275Z,45.14
2022-08-28T09:48:00.775Z,44.83
2022-08-28T09:50:41.761Z,44.68
2022-08-28T09:53:09.078Z,45.37
2022-08-28T09:55:46.254Z,45.07
2022-08-28T09:58:13.939Z,45.33
2022-08-28T10:00:51.406Z,45.57
2022-08-28T10:03:26.144Z,45.48
2022-08-28T10:06:00.349Z,44.64
2022-08-28T10:09:06.672Z,45.14
2022-08-28T10:11:44.582Z,43.37
2022-08-28T10:14:33.455Z,42.70
2022-08-28T10:17:41.404Z,42.54
2022-08-28T10:20:19.964Z,43.06
2022-08-28T10:22:56.242Z,43.46
2022-08-28T10:25:36.056Z,42.79
2022-08-28T10:28:44.844Z,42.22
2022-08-28T10:31:27.296Z,42.78
2022-08-28T10:34:36.711Z,42.04
2022-08-28T10:37:15.622Z,41.17
2022-08-28T10:39:58.952Z,41.24
2022-08-28T10:42:35.906Z,41.48
2022-08-28T10:45:06.900Z,41.68
2022-08-28T10:47:38.343Z,40.98
2022-08-28T10:50:15.644Z,40.23
2022-08-28T10:52:47.924Z,40.52
2022-08-28T10:55:25.216Z,40.91
2022-08-28T10:58:00.622Z,39.46
2022-08-28T11:00:28.803Z,39.35
2022-08-28T11:02:59.980Z,39.64
2022-08-28T11:05:32.509Z,39.53
2022-08-28T11:08:05.273Z,39.54
2022-08-28T11:10:32.228Z,38.38
2022-08-28T11:13:00.063Z,38.64
2022-08-28T11:15:29.486Z,39.20
2022-08-28T11:18:19.171Z,38.87
2022-08-28T11:21:03.342Z,38.34
2022-08-28T11:23:49.816Z,38.64
2022-08-28T11:26:30.355Z,37.74
2022-08-28T11:29:00.405Z,38.44
2022-08-28T11:31:34.529Z,38.76
2022-08-28T11:34:02.865Z,38.63
2022-08-28T11:36:50.264Z,38.38
2022-08-28T11:39:21.547Z,37.64
2022-08-28T11:42:10.374Z,37.20
2022-08-28T11:44:44.026Z,36.32
2022-08-28T11:47:43.542Z,36.24
2022-08-28T11:50:24.089Z,36.99
2022-08-28T11:53:16.901Z,36.08
2022-08-28T11:55:56.920Z,36.53
2022-08-28T11:58:54.718Z,36.80
2022-08-28T12:01:32.410Z,35.86
2022-08-28T12:04:08.031Z,34.45
2022-08-28T12:06:54.673Z,34.25
2022-08-28T12:09:44.487Z,33.99
2022-08-28T12:12:23.322Z,33.34
2022-08-28T12:14:56.199Z,33.17
2022-08-28T12:17:24.510Z,33.58
2022-08-28T12:20:04.465Z,33.99
2022-08-28T12:22:52.894Z,34.80
2022-08-28T12:25:42.304Z,33.68
2022-08-28T12:28:22.529Z,33.59
2022-08-28T12:31:48.500Z,34.05
2022-08-28T12:34:36.603Z,34.47
2022-08-28T12:37:07.570Z,34.60
2022-08-28T12:39:34.541Z,34.12
2022-08-28T12:42:03.532Z,33.93
2022-08-28T12:44:33.180Z,33.03
2022-08-28T12:47:00.465Z,33.94
2022-08-28T12:49:32.887Z,33.55
2022-08-28T12:52:16.685Z,33.90
2022-08-28T12:54:48.644Z,34.08
2022-08-28T12:57:19.889Z,33.67
2022-08-28T12:59:50.786Z,33.64
2022-08-28T13:02:29.117Z,32.93
2022-08-28T13:05:02.015Z,32.81
2022-08-28T13:07:45.609Z,33.27
2022-08-28T13:10:25.676Z,33.43
2022-08-28T13:13:05.853Z,33.10
2022-08-28T13:15:54.476Z,33.40
2022-08-28T13:18:40.683Z,32.98
2022-08-28T13:21:28.705Z,33.49
2022-08-28T13:24:21.916Z,33.12
2022-08-28T13:27:08.400Z,32.96
2022-08-28T13:29:36.967Z,32.84
2022-08-28T13:32:07.378Z,32.86
2022-08-28T13:34:37.582Z,33.16
2022-08-28T13:37:14.634Z,33.08
2022-08-28T13:39:47.814Z,33.10
2022-08-28T13:42:18.063Z,33.80
2022-08-28T13:44:49.423Z,33.78
2022-08-28T13:47:17.400Z,33.14
2022-08-28T13:49:44.390Z,33.17
2022-08-28T13:52:11.729Z,33.31
2022-08-28T13:54:43.753Z,32.05
2022-08-28T13:57:13.770Z,32.70
2022-08-28T13:59:41.163Z,33.46
2022-08-28T14:02:32.262Z,33.62
2022-08-28T14:04:59.833Z,33.68
2022-08-28T14:07:26.813Z,33.90
2022-08-28T14:09:56.456Z,33.58
2022-08-28T14:12:32.737Z,33.27
2022-08-28T14:15:01.187Z,33.83
2022-08-28T14:17:28.523Z,33.23
2022-08-28T14:19:55.807Z,33.61
2022-08-28T14:22:22.731Z,34.31
2022-08-28T14:24:49.771Z,34.35
2022-08-28T14:27:17.879Z,34.20
2022-08-28T14:29:44.731Z,33.29
2022-08-28T14:32:12.202Z,33.51
2022-08-28T14:34:39.364Z,32.76
2022-08-28T14:37:06.551Z,32.53
2022-08-28T14:39:33.751Z,32.96
2022-08-28T14:42:01.839Z,32.74
2022-08-28T14:44:29.148Z,33.33
2022-08-28T14:46:56.940Z,33.13
2022-08-28T14:49:25.468Z,32.14
2022-08-28T14:51:54.256Z,32.63
2022-08-28T14:54:24.387Z,32.85
2022-08-28T14:56:53.000Z,33.14
2022-08-28T14:59:26.356Z,33.04
2022-08-28T15:01:55.610Z,33.14
2022-08-28T15:04:24.040Z,33.23
2022-08-28T15:06:55.880Z,33.71
2022-08-28T15:09:23.322Z,33.63
2022-08-28T15:11:50.366Z,35.84
2022-08-28T15:14:17.740Z,36.61
2022-08-28T15:16:47.811Z,37.40
2022-08-28T15:19:18.044Z,38.02
2022-08-28T15:21:48.402Z,37.95
2022-08-28T15:24:21.391Z,38.02
2022-08-28T15:26:48.996Z,38.09
2022-08-28T15:29:16.608Z,38.48
2022-08-28T15:31:46.349Z,38.56
2022-08-28T15:34:22.545Z,38.28
2022-08-28T15:36:54.663Z,37.85
2022-08-28T15:39:41.928Z,37.31
2022-08-28T15:42:10.318Z,37.30
2022-08-28T15:44:37.508Z,37.58
2022-08-28T15:47:06.315Z,37.86
2022-08-28T15:49:46.588Z,37.88
2022-08-28T15:52:19.089Z,38.28
2022-08-28T15:54:47.229Z,38.74
2022-08-28T15:57:14.342Z,39.07
2022-08-28T15:59:50.076Z,38.67
2022-08-28T16:02:20.156Z,39.23
2022-08-28T16:04:48.685Z,39.75
2022-08-28T16:07:16.455Z,38.86
2022-08-28T16:09:43.286Z,39.29
2022-08-28T16:12:10.449Z,39.49
2022-08-28T16:14:37.276Z,39.75
2022-08-28T16:17:05.738Z,40.04
2022-08-28T16:19:41.518Z,40.80
2022-08-28T16:22:13.100Z,40.97
2022-08-28T16:24:40.125Z,41.73
2022-08-28T16:27:09.699Z,41.72
2022-08-28T16:29:40.122Z,41.38
2022-08-28T16:32:07.455Z,41.74
2022-08-28T16:34:34.865Z,41.35
2022-08-28T16:37:03.854Z,41.98
2022-08-28T16:39:30.898Z,42.06
2022-08-28T16:41:57.894Z,42.41
2022-08-28T16:44:26.693Z,42.55
2022-08-28T16:46:55.194Z,42.90
2022-08-28T16:49:23.592Z,43.04
2022-08-28T16:51:51.471Z,43.51
2022-08-28T16:54:19.201Z,44.40
2022-08-28T16:56:46.562Z,44.81
2022-08-28T16:59:16.628Z,45.39
2022-08-28T17:01:43.781Z,46.37
2022-08-28T17:04:12.399Z,46.55
2022-08-28T17:06:40.172Z,47.14
2022-08-28T17:09:07.449Z,47.34
2022-08-28T17:11:34.439Z,47.72
2022-08-28T17:14:01.683Z,48.06
2022-08-28T17:16:31.497Z,48.80
2022-08-28T17:18:59.801Z,48.72
2022-08-28T17:21:45.849Z,49.12
2022-08-28T17:24:13.231Z,49.25
2022-08-28T17:26:41.893Z,49.97
2022-08-28T17:29:09.452Z,50.16
2022-08-28T17:31:37.433Z,50.50
2022-08-28T17:34:07.479Z,50.66
2022-08-28T17:36:35.888Z,48.26
2022-08-28T17:39:05.943Z,47.68
2022-08-28T17:41:33.954Z,48.15
2022-08-28T17:44:02.391Z,49.01
2022-08-28T17:46:35.306Z,49.86
2022-08-28T17:49:05.905Z,50.85
2022-08-28T17:51:43.573Z,52.33
2022-08-28T17:54:17.837Z,53.36
2022-08-28T17:56:46.697Z,54.46
2022-08-28T17:59:15.293Z,55.32
2022-08-28T18:01:46.524Z,56.32
2022-08-28T18:04:21.477Z,57.25
2022-08-28T18:06:53.663Z,58.05
2022-08-28T18:09:21.260Z,58.60
2022-08-28T18:11:48.598Z,59.34
2022-08-28T18:14:15.568Z,59.83
2022-08-28T18:16:42.944Z,60.31
2022-08-28T18:19:11.177Z,60.36
2022-08-28T18:21:39.288Z,60.42
2022-08-28T18:24:07.039Z,60.79
2022-08-28T18:26:34.883Z,60.07
2022-08-28T18:29:01.889Z,60.65
2022-08-28T18:31:32.363Z,60.69
2022-08-28T18:34:01.305Z,60.95
2022-08-28T18:36:43.479Z,60.65
2022-08-28T18:39:10.964Z,60.56
2022-08-28T18:41:43.628Z,61.24
2022-08-28T18:44:15.869Z,61.96
2022-08-28T18:46:44.085Z,61.86
2022-08-28T18:49:13.551Z,63.28
2022-08-28T18:51:44.094Z,63.40
2022-08-28T18:54:14.333Z,64.57
2022-08-28T18:56:44.592Z,65.30
2022-08-28T18:59:11.913Z,66.19
2022-08-28T19:01:39.424Z,65.84
2022-08-28T19:04:07.129Z,65.31
2022-08-28T19:06:35.015Z,65.51
2022-08-28T19:09:05.309Z,65.26
2022-08-28T19:11:33.841Z,65.08
2022-08-28T19:14:03.619Z,64.36
2022-08-28T19:16:32.059Z,65.68
2022-08-28T19:19:03.742Z,65.50
2022-08-28T19:21:32.898Z,64.21
2022-08-28T19:24:00.302Z,64.37
2022-08-28T19:26:29.461Z,64.48
2022-08-28T19:28:56.946Z,64.09
2022-08-28T19:31:26.692Z,64.07
2022-08-28T19:33:56.291Z,64.10
2022-08-28T19:36:27.183Z,63.45
2022-08-28T19:38:54.386Z,63.82
2022-08-28T19:41:22.896Z,63.91
2022-08-28T19:43:50.556Z,63.41
2022-08-28T19:46:19.345Z,63.85
2022-08-28T19:48:48.601Z,64.46
2022-08-28T19:51:18.235Z,64.53
2022-08-28T19:53:57.328Z,65.10
2022-08-28T19:56:31.608Z,65.76
2022-08-28T19:59:01.155Z,65.53
2022-08-28T20:01:31.498Z,65.38
2022-08-28T20:04:00.152Z,65.28
2022-08-28T20:06:30.360Z,65.77
2022-08-28T20:08:57.822Z,66.38
2022-08-28T20:11:29.101Z,66.01
2022-08-28T20:14:03.922Z,66.04
2022-08-28T20:16:34.729Z,66.58
2022-08-28T20:19:03.260Z,66.23
2022-08-28T20:21:37.898Z,66.29
2022-08-28T20:24:11.808Z,66.18
2022-08-28T20:26:39.832Z,65.85
2022-08-28T20:29:09.385Z,66.03
2022-08-28T20:31:41.910Z,66.13
2022-08-28T20:34:11.738Z,65.66
2022-08-28T20:36:39.518Z,65.61
2022-08-28T20:39:09.552Z,65.62
2022-08-28T20:41:39.260Z,65.68
2022-08-28T20:44:09.399Z,65.54
2022-08-28T20:46:41.360Z,65.66
2022-08-28T20:49:11.309Z,65.50
2022-08-28T20:51:56.961Z,65.59
2022-08-28T20:54:28.849Z,65.95
2022-08-28T20:56:57.705Z,66.12
2022-08-28T20:59:35.489Z,66.17
2022-08-28T21:02:10.926Z,66.15
2022-08-28T21:04:39.782Z,66.29
2022-08-28T21:07:06.750Z,66.46
2022-08-28T21:09:58.145Z,66.31
2022-08-28T21:12:21.528Z,66.13
2022-08-28T21:14:52.479Z,66.24
2022-08-28T21:17:28.697Z,66.19
2022-08-28T21:20:03.060Z,66.01
2022-08-28T21:22:32.916Z,65.23
2022-08-28T21:25:01.867Z,65.28
2022-08-28T21:27:30.462Z,65.39
2022-08-28T21:29:59.462Z,65.69
2022-08-28T21:32:28.363Z,65.65
2022-08-28T21:34:55.858Z,65.74
2022-08-28T21:37:23.542Z,65.59
2022-08-28T21:39:50.875Z,65.95
2022-08-28T21:42:18.637Z,66.41
2022-08-28T21:44:51.771Z,66.78
2022-08-28T21:47:23.502Z,66.75
2022-08-28T21:49:55.015Z,66.88
2022-08-28T21:52:24.898Z,66.35
2022-08-28T21:54:56.850Z,67.18
2022-08-28T21:57:24.410Z,67.38
2022-08-28T21:59:51.322Z,67.70
2022-08-28T22:02:18.417Z,67.77
2022-08-28T22:04:45.457Z,68.55
2022-08-28T22:07:14.139Z,69.98
2022-08-28T22:09:41.866Z,69.53
2022-08-28T22:12:10.175Z,69.50
2022-08-28T22:14:38.249Z,69.58
2022-08-28T22:17:11.254Z,70.00
2022-08-28T22:19:39.817Z,70.75
2022-08-28T22:22:26.185Z,70.20
2022-08-28T22:24:54.033Z,69.84
2022-08-28T22:27:21.007Z,70.48
2022-08-28T22:29:48.113Z,70.40
2022-08-28T22:32:15.422Z,69.85
2022-08-28T22:34:45.401Z,70.41
2022-08-28T22:37:13.166Z,70.90
2022-08-28T22:39:41.751Z,71.35
2022-08-28T22:42:09.964Z,71.55
2022-08-28T22:44:37.538Z,72.33
2022-08-28T22:47:05.394Z,73.97
2022-08-28T22:49:32.195Z,75.48
2022-08-28T22:51:59.353Z,77.37
2022-08-28T22:54:26.792Z,79.97
2022-08-28T22:56:53.679Z,81.66
2022-08-28T22:59:20.857Z,83.16
2022-08-28T23:01:48.023Z,83.94
2022-08-28T23:04:16.071Z,85.39
2022-08-28T23:06:43.125Z,86.48
2022-08-28T23:09:10.399Z,86.77
2022-08-28T23:11:38.061Z,87.46
2022-08-28T23:14:06.155Z,87.81
2022-08-28T23:16:35.290Z,87.96
2022-08-28T23:19:13.204Z,88.29
2022-08-28T23:21:43.981Z,87.98
2022-08-28T23:24:16.175Z,88.68
2022-08-28T23:26:45.248Z,89.02
2022-08-28T23:29:13.037Z,89.35
2022-08-28T23:31:40.440Z,89.46
2022-08-28T23:34:08.065Z,89.32
2022-08-28T23:36:36.526Z,89.72
2022-08-28T23:39:04.933Z,90.06
2022-08-28T23:41:33.620Z,90.68
2022-08-28T23:44:03.151Z,90.25
2022-08-28T23:46:32.547Z,91.20
2022-08-28T23:48:59.873Z,92.39
2022-08-28T23:51:26.740Z,92.82
2022-08-28T23:53:53.719Z,93.81
2022-08-28T23:56:20.873Z,93.95
2022-08-28T23:58:47.767Z,94.60
